Time;durP1;ratioP1;P1;durP2;ratioP2;P2;SDS_P1;SDS_P2;PMS_P1;PMS_P2;Temp;Humidity;BMP_temperature;BMP_pressure;BME280_temperature;BME280_humidity;BME280_pressure;Samples;Min_cycle;Max_cycle;Signal;HPM_P1;HPM_P2
2021/01/05 00:02:16;;;;;;;2.10;1.60;;;3.10;84.30;;;;;;5058047;28;20028;-71
2021/01/05 00:04:42;;;;;;;3.08;1.48;;;3.20;85.30;;;;;;5058977;28;20413;-72
2021/01/05 00:07:08;;;;;;;2.45;1.35;;;3.20;85.40;;;;;;5058939;28;20025;-72
2021/01/05 00:09:34;;;;;;;4.53;1.75;;;3.20;84.60;;;;;;5058945;28;20441;-71
2021/01/05 00:12:03;;;;;;;7.40;2.20;;;3.20;84.20;;;;;;5059131;28;20025;-72
2021/01/05 00:14:29;;;;;;;2.97;1.90;;;3.20;84.70;;;;;;5058878;28;20021;-72
2021/01/05 00:16:56;;;;;;;3.58;1.83;;;3.20;82.90;;;;;;5058795;28;20139;-72
2021/01/05 00:19:23;;;;;;;2.53;1.60;;;3.10;82.80;;;;;;5058749;28;20025;-71
2021/01/05 00:21:49;;;;;;;3.83;1.73;;;3.20;82.60;;;;;;5057665;28;20032;-71
2021/01/05 00:24:16;;;;;;;3.30;1.70;;;3.20;80.90;;;;;;5058721;28;20036;-71
2021/01/05 00:26:41;;;;;;;3.78;1.35;;;3.30;78.90;;;;;;5058441;28;20060;-71
2021/01/05 00:29:09;;;;;;;2.05;1.60;;;3.40;77.70;;;;;;5058731;28;20018;-71
2021/01/05 00:31:35;;;;;;;3.05;1.70;;;3.40;76.60;;;;;;5058565;28;20025;-71
2021/01/05 00:34:01;;;;;;;3.22;1.70;;;3.50;76.00;;;;;;5057443;28;20021;-71
2021/01/05 00:36:27;;;;;;;2.95;1.80;;;3.50;77.00;;;;;;5058500;28;20039;-71
2021/01/05 00:38:52;;;;;;;3.00;1.45;;;3.50;77.20;;;;;;5058689;28;20047;-71
2021/01/05 00:41:19;;;;;;;2.60;2.17;;;3.50;77.00;;;;;;5057361;28;20469;-71
2021/01/05 00:43:46;;;;;;;2.25;1.42;;;3.50;76.20;;;;;;5058558;28;20021;-72
2021/01/05 00:46:12;;;;;;;3.20;1.23;;;3.50;76.60;;;;;;5058447;28;20375;-71
2021/01/05 00:48:38;;;;;;;1.92;1.00;;;3.50;77.40;;;;;;5058194;28;20321;-72
2021/01/05 00:51:06;;;;;;;2.17;1.17;;;3.50;77.60;;;;;;5058119;28;20032;-72
2021/01/05 00:53:31;;;;;;;2.70;1.48;;;3.50;78.60;;;;;;5058060;28;20070;-72
2021/01/05 00:55:57;;;;;;;3.25;1.70;;;3.40;79.30;;;;;;5058506;28;20111;-72
2021/01/05 00:58:23;;;;;;;2.10;1.23;;;3.30;80.30;;;;;;5057997;28;20479;-71
2021/01/05 01:00:51;;;;;;;1.95;1.17;;;3.30;81.20;;;;;;5058271;28;20037;-72
2021/01/05 01:03:18;;;;;;;2.47;1.40;;;3.30;81.30;;;;;;5057925;28;20406;-72
2021/01/05 01:05:44;;;;;;;2.85;1.60;;;3.20;81.80;;;;;;5057761;28;20094;-71
2021/01/05 01:08:10;;;;;;;1.60;1.15;;;3.20;82.50;;;;;;5057826;28;20048;-71
2021/01/05 01:10:36;;;;;;;1.83;1.17;;;3.20;83.00;;;;;;5058061;28;20036;-72
2021/01/05 01:13:02;;;;;;;2.63;1.13;;;3.30;83.20;;;;;;5057834;28;20376;-72
2021/01/05 01:15:28;;;;;;;2.33;0.90;;;3.30;83.40;;;;;;5057956;28;20039;-71
2021/01/05 01:17:54;;;;;;;1.50;0.95;;;3.30;84.10;;;;;;5057676;28;20029;-72
2021/01/05 01:20:20;;;;;;;1.55;1.00;;;3.30;83.50;;;;;;5057591;28;20086;-71
2021/01/05 01:22:45;;;;;;;1.92;0.90;;;3.30;83.80;;;;;;5057575;28;20033;-71
2021/01/05 01:25:11;;;;;;;1.75;1.13;;;3.30;84.60;;;;;;5057148;28;20053;-72
2021/01/05 01:27:38;;;;;;;1.33;0.80;;;3.40;84.30;;;;;;5056416;28;20317;-71
2021/01/05 01:30:06;;;;;;;1.50;0.90;;;3.40;84.30;;;;;;5057414;28;20029;-71
2021/01/05 01:32:33;;;;;;;3.25;0.93;;;3.50;84.90;;;;;;5057447;28;20013;-71
2021/01/05 01:34:58;;;;;;;2.05;1.00;;;3.50;84.90;;;;;;5057319;28;20018;-71
2021/01/05 01:37:24;;;;;;;1.60;0.85;;;3.50;84.60;;;;;;5057268;28;20436;-71
2021/01/05 01:39:50;;;;;;;2.58;1.10;;;3.40;84.70;;;;;;5057235;28;20040;-72
2021/01/05 01:42:18;;;;;;;2.67;1.15;;;3.40;82.40;;;;;;5057195;28;20055;-72
2021/01/05 01:44:45;;;;;;;4.03;1.20;;;3.40;81.30;;;;;;5057529;28;20349;-72
2021/01/05 01:47:33;;;;;;;3.45;1.60;;;3.40;81.30;;;;;;5057080;28;20029;-71
2021/01/05 01:50:05;;;;;;;2.47;1.30;;;3.40;81.10;;;;;;5057105;28;20025;-72
2021/01/05 01:53:08;;;;;;;2.13;1.30;;;3.40;79.60;;;;;;5057132;28;20025;-72
2021/01/05 01:55:37;;;;;;;4.90;1.77;;;3.40;80.50;;;;;;5056829;28;20033;-71
2021/01/05 01:58:36;;;;;;;3.30;1.40;;;3.30;81.30;;;;;;5055897;28;20080;-71
2021/01/05 02:01:16;;;;;;;2.45;1.60;;;3.20;81.60;;;;;;5057201;28;20116;-72
2021/01/05 02:03:54;;;;;;;2.00;1.20;;;3.20;82.10;;;;;;5056788;28;20024;-71
2021/01/05 02:06:29;;;;;;;2.40;1.17;;;3.20;82.70;;;;;;5056763;28;20036;-71
2021/01/05 02:09:46;;;;;;;2.10;0.93;;;3.20;83.50;;;;;;5056808;28;20021;-71
2021/01/05 02:12:19;;;;;;;2.47;1.30;;;3.20;83.70;;;;;;5055611;28;20040;-71
2021/01/05 02:14:59;;;;;;;1.77;0.90;;;3.20;83.90;;;;;;5056672;28;20299;-71
2021/01/05 02:17:50;;;;;;;2.30;1.10;;;3.20;84.30;;;;;;5056705;28;20044;-72
2021/01/05 02:20:32;;;;;;;5.15;1.20;;;3.30;84.40;;;;;;5056690;28;20057;-72
2021/01/05 02:23:26;;;;;;;1.25;0.95;;;3.30;84.00;;;;;;5056612;28;20058;-72
2021/01/05 02:26:12;;;;;;;2.05;1.17;;;3.30;83.70;;;;;;5055204;28;20127;-71
2021/01/05 02:28:44;;;;;;;2.20;0.85;;;3.30;82.70;;;;;;5056837;28;20087;-72
2021/01/05 02:31:24;;;;;;;2.33;1.30;;;3.20;82.20;;;;;;5056613;28;20021;-72
2021/01/05 02:33:52;;;;;;;2.55;1.35;;;3.20;80.80;;;;;;5056563;28;20322;-71
2021/01/05 02:36:37;;;;;;;2.85;1.58;;;3.20;79.30;;;;;;5056731;28;20029;-72
2021/01/05 02:39:16;;;;;;;2.50;1.35;;;3.20;79.30;;;;;;5056746;28;20033;-71
2021/01/05 02:42:20;;;;;;;2.38;1.20;;;3.30;79.60;;;;;;5056879;28;20317;-71
2021/01/05 02:45:02;;;;;;;1.88;1.10;;;3.40;78.80;;;;;;5055281;28;20095;-72
2021/01/05 02:47:38;;;;;;;1.98;1.27;;;3.40;78.20;;;;;;5056582;28;20028;-72
2021/01/05 02:50:22;;;;;;;1.65;0.85;;;3.50;79.30;;;;;;5056365;28;20030;-72
2021/01/05 02:53:16;;;;;;;3.33;1.48;;;3.50;78.60;;;;;;5056460;28;20025;-71
2021/01/05 02:56:00;;;;;;;2.63;1.10;;;3.60;78.90;;;;;;5056661;28;20033;-71
2021/01/05 02:59:00;;;;;;;3.10;1.20;;;3.60;79.40;;;;;;5056316;28;20032;-71
2021/01/05 03:01:28;;;;;;;2.85;1.48;;;3.60;78.70;;;;;;5055306;28;20119;-72
2021/01/05 03:03:54;;;;;;;1.63;1.15;;;3.50;77.80;;;;;;5056551;28;20306;-71
2021/01/05 03:06:25;;;;;;;1.73;1.05;;;3.50;77.30;;;;;;5056381;28;20025;-71
2021/01/05 03:09:29;;;;;;;2.42;1.17;;;3.50;77.10;;;;;;5058700;28;20021;-71
2021/01/05 03:11:57;;;;;;;2.03;1.20;;;3.50;77.10;;;;;;5058458;28;20029;-71
2021/01/05 03:14:38;;;;;;;2.10;1.30;;;3.40;77.60;;;;;;5059864;28;20294;-71
2021/01/05 03:17:13;;;;;;;1.67;0.80;;;3.40;77.20;;;;;;5060227;28;20059;-72
2021/01/05 03:20:08;;;;;;;2.92;1.10;;;3.40;77.90;;;;;;5060234;28;20052;-71
2021/01/05 03:22:39;;;;;;;1.83;1.10;;;3.50;77.60;;;;;;5060155;28;20040;-72
2021/01/05 03:25:06;;;;;;;2.05;1.10;;;3.50;78.70;;;;;;5059564;28;20053;-72
2021/01/05 03:27:32;;;;;;;1.67;1.00;;;3.50;79.20;;;;;;5059848;28;20367;-72
2021/01/05 03:30:14;;;;;;;1.40;0.95;;;3.50;79.00;;;;;;5059590;28;20029;-72
2021/01/05 03:32:39;;;;;;;2.40;0.93;;;3.50;78.90;;;;;;5059981;28;20029;-72
2021/01/05 03:35:06;;;;;;;1.88;0.90;;;3.60;78.10;;;;;;5059661;28;20029;-71
2021/01/05 03:37:31;;;;;;;2.03;1.20;;;3.70;76.70;;;;;;5059597;28;20025;-71
2021/01/05 03:39:57;;;;;;;1.65;0.88;;;3.70;76.70;;;;;;5059558;28;20036;-71
2021/01/05 03:42:22;;;;;;;1.83;1.10;;;3.80;76.10;;;;;;5059546;28;20033;-71
2021/01/05 03:44:48;;;;;;;3.33;1.48;;;3.80;75.70;;;;;;5059491;28;20024;-71
2021/01/05 03:47:14;;;;;;;2.97;1.50;;;3.90;75.70;;;;;;5059321;28;20409;-71
2021/01/05 03:49:39;;;;;;;1.40;0.88;;;3.90;75.80;;;;;;5059354;28;20409;-71
2021/01/05 03:52:05;;;;;;;3.38;0.88;;;3.90;75.40;;;;;;5059316;28;20033;-71
2021/01/05 03:54:31;;;;;;;2.28;0.80;;;3.90;75.80;;;;;;5058102;28;20031;-71
2021/01/05 03:56:56;;;;;;;2.33;0.80;;;3.90;74.90;;;;;;5058199;28;20087;-71
2021/01/05 03:59:22;;;;;;;1.50;1.10;;;3.90;75.50;;;;;;5059419;28;20028;-71
2021/01/05 04:01:52;;;;;;;1.08;0.73;;;3.90;75.40;;;;;;5059153;28;20108;-72
2021/01/05 04:04:18;;;;;;;1.77;0.82;;;3.90;75.50;;;;;;5059194;28;20029;-72
2021/01/05 04:06:44;;;;;;;1.45;0.70;;;3.90;76.20;;;;;;5058942;28;20104;-71
2021/01/05 04:09:10;;;;;;;1.95;0.98;;;3.90;75.60;;;;;;5057959;28;20056;-72
2021/01/05 04:11:36;;;;;;;1.38;0.90;;;3.90;77.00;;;;;;5057967;28;20359;-71
2021/01/05 04:14:01;;;;;;;2.42;1.10;;;3.90;76.40;;;;;;5059070;28;20021;-71
2021/01/05 04:16:27;;;;;;;2.20;0.80;;;3.90;78.30;;;;;;5059183;28;20032;-72
2021/01/05 04:18:52;;;;;;;1.60;0.90;;;3.80;79.40;;;;;;5058510;28;20127;-71
2021/01/05 04:21:18;;;;;;;1.23;0.75;;;3.70;80.30;;;;;;5058724;28;20028;-72
2021/01/05 04:23:44;;;;;;;0.95;0.60;;;3.50;81.10;;;;;;5058728;28;20029;-71
2021/01/05 04:26:10;;;;;;;1.48;0.77;;;3.40;81.60;;;;;;5057297;28;20341;-72
2021/01/05 04:28:36;;;;;;;1.77;1.02;;;3.40;82.30;;;;;;5058819;28;20321;-71
2021/01/05 04:31:01;;;;;;;1.50;1.00;;;3.30;84.20;;;;;;5058605;28;20067;-71
2021/01/05 04:33:27;;;;;;;3.40;1.70;;;3.30;84.50;;;;;;5058458;28;20033;-71
2021/01/05 04:35:53;;;;;;;2.22;1.33;;;3.30;84.90;;;;;;5058722;28;20107;-72
2021/01/05 04:38:18;;;;;;;1.80;1.10;;;3.30;85.30;;;;;;5057405;28;20064;-71
2021/01/05 04:40:47;;;;;;;1.70;1.25;;;3.20;85.50;;;;;;5058390;28;20071;-71
2021/01/05 04:43:39;;;;;;;2.40;1.48;;;3.20;85.80;;;;;;5058334;28;20040;-71
2021/01/05 04:46:19;;;;;;;2.15;1.50;;;3.20;86.10;;;;;;5053250;28;20029;-71
2021/01/05 04:48:55;;;;;;;2.10;1.10;;;3.30;86.80;;;;;;5058250;28;20048;-71
2021/01/05 04:51:51;;;;;;;2.05;1.23;;;3.40;86.40;;;;;;5058399;28;20025;-72
2021/01/05 04:54:29;;;;;;;2.85;1.20;;;3.40;86.00;;;;;;5056966;28;20029;-71
2021/01/05 04:57:19;;;;;;;1.83;1.25;;;3.50;85.80;;;;;;5058116;28;20093;-72
2021/01/05 04:59:49;;;;;;;1.77;1.20;;;3.50;86.00;;;;;;5058202;28;20033;-71
2021/01/05 05:02:22;;;;;;;1.95;1.30;;;3.50;85.80;;;;;;5058334;28;20032;-72
2021/01/05 05:04:58;;;;;;;2.60;1.60;;;3.60;85.90;;;;;;5057972;28;20033;-71
2021/01/05 05:07:31;;;;;;;3.28;1.85;;;3.60;85.90;;;;;;5058008;28;20058;-72
2021/01/05 05:10:21;;;;;;;2.22;1.30;;;3.60;85.60;;;;;;5057869;28;20321;-71
2021/01/05 05:13:15;;;;;;;4.47;2.28;;;3.70;86.00;;;;;;5058039;28;20021;-71
2021/01/05 05:15:59;;;;;;;4.57;2.15;;;3.50;84.60;;;;;;5058069;28;20365;-71
2021/01/05 05:18:32;;;;;;;2.72;2.00;;;3.40;85.60;;;;;;5057967;28;20083;-72
2021/01/05 05:21:00;;;;;;;3.40;1.77;;;3.40;86.10;;;;;;5057571;28;20104;-72
2021/01/05 05:23:35;;;;;;;2.67;1.70;;;3.40;85.90;;;;;;5057837;28;20078;-72
2021/01/05 05:26:12;;;;;;;3.40;1.85;;;3.30;85.70;;;;;;5057249;28;20057;-72
2021/01/05 05:28:47;;;;;;;2.25;1.30;;;3.30;85.40;;;;;;5056481;28;20017;-71
2021/01/05 05:31:18;;;;;;;27.35;14.25;;;3.30;85.40;;;;;;5056993;28;20049;-71
2021/01/05 05:33:45;;;;;;;78.82;35.67;;;3.30;84.80;;;;;;5056314;28;20067;-71
2021/01/05 05:36:22;;;;;;;3.05;2.15;;;3.30;84.70;;;;;;5056243;28;20025;-71
2021/01/05 05:38:54;;;;;;;2.42;1.08;;;3.30;85.10;;;;;;5057563;28;20319;-71
2021/01/05 05:41:57;;;;;;;2.80;1.20;;;3.30;83.70;;;;;;5057238;28;20028;-71
2021/01/05 05:44:56;;;;;;;2.70;0.90;;;3.20;82.20;;;;;;5057393;28;20037;-71
2021/01/05 05:47:57;;;;;;;2.22;0.85;;;3.20;81.70;;;;;;5056707;28;20325;-71
2021/01/05 05:50:58;;;;;;;1.45;0.80;;;3.30;81.00;;;;;;5057089;28;20029;-71
2021/01/05 05:53:30;;;;;;;1.27;0.63;;;3.40;80.20;;;;;;5056078;28;20049;-71
2021/01/05 05:56:06;;;;;;;2.67;0.60;;;3.50;80.60;;;;;;5057378;28;20099;-71
2021/01/05 05:58:36;;;;;;;2.20;1.20;;;3.50;80.90;;;;;;5057410;28;20029;-71
2021/01/05 06:01:05;;;;;;;1.95;1.20;;;3.60;81.70;;;;;;5056893;28;20027;-72
2021/01/05 06:03:31;;;;;;;2.20;1.50;;;3.60;81.90;;;;;;5057143;28;20025;-72
2021/01/05 06:05:56;;;;;;;1.65;1.17;;;3.50;82.00;;;;;;5056927;28;20025;-72
2021/01/05 06:08:23;;;;;;;2.75;1.58;;;3.40;81.60;;;;;;5055829;28;20408;-72
2021/01/05 06:10:50;;;;;;;2.30;1.30;;;3.30;81.40;;;;;;5055766;28;20025;-72
2021/01/05 06:13:16;;;;;;;2.67;1.17;;;3.20;82.40;;;;;;5057023;28;20412;-72
2021/01/05 06:15:42;;;;;;;2.47;1.13;;;3.10;81.90;;;;;;5056671;28;20021;-71
2021/01/05 06:18:11;;;;;;;1.65;0.70;;;3.00;81.80;;;;;;5056843;28;20033;-72
2021/01/05 06:20:36;;;;;;;1.52;0.80;;;2.90;81.50;;;;;;5056875;28;20109;-72
2021/01/05 06:23:03;;;;;;;0.98;0.50;;;2.90;81.70;;;;;;5056618;28;20100;-71
2021/01/05 06:25:28;;;;;;;2.92;0.60;;;2.90;82.00;;;;;;5056446;28;20084;-71
2021/01/05 06:27:54;;;;;;;0.90;0.50;;;2.90;82.00;;;;;;5055593;28;20048;-71
2021/01/05 06:30:20;;;;;;;1.58;0.63;;;2.90;82.60;;;;;;5056563;28;20480;-71
2021/01/05 06:32:46;;;;;;;1.67;0.80;;;2.90;83.50;;;;;;5056545;28;20432;-71
2021/01/05 06:35:13;;;;;;;3.83;1.23;;;2.90;84.20;;;;;;5056730;28;20026;-72
2021/01/05 06:37:39;;;;;;;2.33;1.10;;;2.90;83.50;;;;;;5056463;28;20062;-72
2021/01/05 06:40:06;;;;;;;2.28;0.95;;;2.90;82.90;;;;;;5056475;28;20045;-71
2021/01/05 06:42:32;;;;;;;2.25;0.88;;;2.90;84.10;;;;;;5057344;28;20063;-71
2021/01/05 06:44:58;;;;;;;6.80;2.00;;;2.90;84.20;;;;;;5060836;28;20021;-71
2021/01/05 06:47:23;;;;;;;2.40;1.52;;;2.90;84.30;;;;;;5060462;28;20326;-71
2021/01/05 06:49:49;;;;;;;2.83;1.30;;;2.90;85.40;;;;;;5060467;28;20025;-72
2021/01/05 06:52:15;;;;;;;4.18;1.60;;;2.90;86.10;;;;;;5060966;28;20025;-71
2021/01/05 06:54:40;;;;;;;0.90;0.50;;;2.90;86.50;;;;;;5060236;28;20044;-71
2021/01/05 06:57:06;;;;;;;1.67;0.50;;;3.00;85.70;;;;;;5060383;28;20048;-71
2021/01/05 06:59:32;;;;;;;2.30;0.68;;;3.10;85.40;;;;;;5060291;28;20413;-71
2021/01/05 07:02:03;;;;;;;2.92;0.80;;;3.20;85.90;;;;;;5059226;28;20040;-71
2021/01/05 07:04:29;;;;;;;1.40;0.50;;;3.20;85.70;;;;;;5060506;28;20029;-71
2021/01/05 07:06:56;;;;;;;2.20;0.90;;;3.20;85.80;;;;;;5060136;28;20029;-71
2021/01/05 07:09:23;;;;;;;4.95;1.58;;;3.10;85.90;;;;;;5059095;28;20025;-71
2021/01/05 07:11:49;;;;;;;7.40;2.30;;;3.10;86.20;;;;;;5060084;28;20316;-71
2021/01/05 07:14:18;;;;;;;9.27;3.72;;;3.10;85.60;;;;;;5059948;28;20587;-71
2021/01/05 07:16:44;;;;;;;3.42;1.58;;;3.20;85.30;;;;;;5058964;28;20028;-71
2021/01/05 07:19:09;;;;;;;1.60;0.80;;;3.30;85.20;;;;;;5060219;28;20112;-71
2021/01/05 07:21:35;;;;;;;0.90;0.47;;;3.40;82.70;;;;;;5059938;28;20033;-71
2021/01/05 07:24:02;;;;;;;0.90;0.50;;;3.40;82.10;;;;;;5059938;28;20029;-71
2021/01/05 07:26:27;;;;;;;0.43;0.30;;;3.30;79.80;;;;;;5059538;28;20429;-71
2021/01/05 07:28:53;;;;;;;1.70;0.40;;;3.30;78.40;;;;;;5058667;28;20025;-71
2021/01/05 07:31:19;;;;;;;0.98;0.25;;;3.50;77.80;;;;;;5059756;28;20040;-71
2021/01/05 07:33:44;;;;;;;0.60;0.38;;;3.60;77.90;;;;;;5059652;28;20128;-71
2021/01/05 07:36:25;;;;;;;0.70;0.40;;;3.60;77.20;;;;;;5058508;28;20099;-71
2021/01/05 07:38:51;;;;;;;0.77;0.40;;;3.70;77.60;;;;;;5059785;28;20029;-72
2021/01/05 07:41:18;;;;;;;1.02;0.80;;;3.60;78.00;;;;;;5059791;28;20025;-72
2021/01/05 07:43:44;;;;;;;1.65;1.20;;;3.60;78.50;;;;;;5059911;28;20025;-72
2021/01/05 07:46:10;;;;;;;2.50;1.67;;;3.70;81.70;;;;;;5059314;28;20116;-71
2021/01/05 07:48:36;;;;;;;1.63;1.08;;;3.80;82.30;;;;;;5059420;28;20055;-71
2021/01/05 07:51:04;;;;;;;1.15;0.90;;;3.90;83.20;;;;;;5059449;28;20316;-72
2021/01/05 07:53:30;;;;;;;1.63;0.90;;;3.90;83.90;;;;;;5058601;28;20109;-72
2021/01/05 07:55:55;;;;;;;1.27;0.90;;;3.90;83.30;;;;;;5058315;28;20068;-72
2021/01/05 07:58:21;;;;;;;1.73;0.60;;;3.90;83.70;;;;;;5059258;28;20017;-71
2021/01/05 08:00:47;;;;;;;2.40;1.23;;;3.90;84.00;;;;;;5059438;28;20032;-72
2021/01/05 08:03:13;;;;;;;2.05;0.90;;;4.00;82.70;;;;;;5059086;28;20360;-72
2021/01/05 08:05:38;;;;;;;1.80;1.00;;;4.00;83.10;;;;;;5059419;28;20025;-72
2021/01/05 08:08:04;;;;;;;2.00;1.20;;;4.10;83.80;;;;;;5059071;28;20021;-72
2021/01/05 08:10:34;;;;;;;1.73;0.95;;;4.00;83.50;;;;;;5059326;28;20060;-72
2021/01/05 08:13:01;;;;;;;1.40;0.80;;;4.00;82.80;;;;;;5059054;28;20079;-72
2021/01/05 08:15:29;;;;;;;1.55;0.60;;;3.90;83.70;;;;;;5058995;28;20025;-72
2021/01/05 08:17:55;;;;;;;1.17;0.63;;;3.90;83.50;;;;;;5058900;28;20020;-71
2021/01/05 08:20:24;;;;;;;1.35;0.75;;;3.90;83.30;;;;;;5059000;28;20025;-71
2021/01/05 08:22:50;;;;;;;1.52;0.60;;;3.80;83.70;;;;;;5058785;28;20379;-72
2021/01/05 08:25:17;;;;;;;1.00;0.70;;;3.80;84.10;;;;;;5058463;28;20081;-72
2021/01/05 08:27:50;;;;;;;1.90;1.00;;;3.80;84.60;;;;;;5057645;28;20067;-72
2021/01/05 08:30:18;;;;;;;0.88;0.57;;;3.80;84.50;;;;;;5058688;28;20321;-72
2021/01/05 08:32:43;;;;;;;6.78;2.70;;;3.80;82.90;;;;;;5058586;28;20410;-72
2021/01/05 08:35:10;;;;;;;3.03;1.75;;;3.80;84.10;;;;;;5058545;28;20035;-72
2021/01/05 08:37:37;;;;;;;1.67;0.98;;;3.90;83.30;;;;;;5057447;28;20356;-72
2021/01/05 08:40:05;;;;;;;0.80;0.50;;;3.90;82.00;;;;;;5058467;28;20444;-72
2021/01/05 08:42:31;;;;;;;0.98;0.50;;;3.90;82.80;;;;;;5057278;28;20032;-71
2021/01/05 08:44:56;;;;;;;0.77;0.43;;;3.90;81.10;;;;;;5058576;28;20021;-72
2021/01/05 08:47:22;;;;;;;0.80;0.50;;;4.00;81.00;;;;;;5058227;28;20025;-72
2021/01/05 08:49:48;;;;;;;1.17;0.57;;;4.00;79.00;;;;;;5058530;28;20108;-71
2021/01/05 08:52:16;;;;;;;1.20;0.30;;;4.00;78.80;;;;;;5058475;28;20021;-71
2021/01/05 08:54:42;;;;;;;1.00;0.50;;;4.00;78.10;;;;;;5058168;28;20031;-71
2021/01/05 08:57:13;;;;;;;1.00;0.60;;;4.10;77.10;;;;;;5058125;28;20033;-71
2021/01/05 08:59:39;;;;;;;1.25;0.63;;;4.10;77.30;;;;;;5058212;28;20021;-71
2021/01/05 09:02:04;;;;;;;1.23;0.80;;;4.10;77.30;;;;;;5058306;28;20055;-71
2021/01/05 09:04:30;;;;;;;1.70;0.70;;;4.10;77.30;;;;;;5058001;28;20052;-72
2021/01/05 09:06:56;;;;;;;1.27;0.70;;;4.20;78.00;;;;;;5056848;28;20029;-72
2021/01/05 09:09:22;;;;;;;1.90;1.20;;;4.30;77.00;;;;;;5057815;28;20082;-71
2021/01/05 09:11:55;;;;;;;1.85;1.08;;;4.50;80.40;;;;;;5058075;28;20029;-72
2021/01/05 09:14:22;;;;;;;2.97;2.00;;;4.70;76.90;;;;;;5057937;28;20078;-72
2021/01/05 09:16:48;;;;;;;7.45;4.82;;;4.90;78.20;;;;;;5058025;28;20019;-72
2021/01/05 09:19:14;;;;;;;3.58;2.40;;;5.10;77.40;;;;;;5056680;28;20119;-72
2021/01/05 09:21:40;;;;;;;4.40;3.30;;;5.20;76.90;;;;;;5057655;28;20021;-72
2021/01/05 09:24:06;;;;;;;2.63;1.30;;;5.40;77.60;;;;;;5057549;28;20298;-72
2021/01/05 09:26:34;;;;;;;2.00;1.30;;;5.50;75.70;;;;;;5056267;28;20045;-72
2021/01/05 09:29:01;;;;;;;1.70;1.08;;;5.60;75.80;;;;;;5057729;28;20318;-72
2021/01/05 09:31:27;;;;;;;1.70;0.80;;;5.60;77.20;;;;;;5057585;28;20468;-71
2021/01/05 09:33:54;;;;;;;2.28;0.88;;;5.70;76.20;;;;;;5057592;28;20099;-72
2021/01/05 09:36:29;;;;;;;1.98;0.88;;;5.60;76.90;;;;;;5057302;28;20539;-72
2021/01/05 09:38:55;;;;;;;1.38;1.08;;;5.70;76.50;;;;;;5057398;28;20139;-72
2021/01/05 09:41:24;;;;;;;1.77;1.20;;;5.60;77.60;;;;;;5057255;28;20112;-72
2021/01/05 09:43:50;;;;;;;2.40;1.40;;;5.60;78.50;;;;;;5057486;28;20111;-72
2021/01/05 09:46:16;;;;;;;2.00;1.20;;;5.60;78.20;;;;;;5057105;28;20029;-71
2021/01/05 09:48:42;;;;;;;1.80;1.20;;;5.60;77.30;;;;;;5057244;28;20021;-72
2021/01/05 09:51:08;;;;;;;3.17;1.30;;;5.70;77.60;;;;;;5057316;28;20079;-72
2021/01/05 09:53:35;;;;;;;1.75;1.35;;;5.60;77.10;;;;;;5057110;28;20304;-72
2021/01/05 09:56:00;;;;;;;2.65;1.40;;;5.60;77.10;;;;;;5056099;28;20044;-72
2021/01/05 09:58:26;;;;;;;2.05;1.23;;;5.70;78.50;;;;;;5055971;28;20091;-72
2021/01/05 10:00:52;;;;;;;2.55;1.77;;;5.80;78.00;;;;;;5057237;28;20025;-72
2021/01/05 10:03:17;;;;;;;2.35;1.60;;;5.70;76.10;;;;;;5057001;28;20033;-72
2021/01/05 10:05:43;;;;;;;2.03;1.60;;;5.60;77.10;;;;;;5056772;28;20432;-72
2021/01/05 10:08:08;;;;;;;1.75;1.38;;;5.60;77.10;;;;;;5053520;28;20032;-72
2021/01/05 10:10:34;;;;;;;2.45;1.67;;;5.60;75.00;;;;;;5047864;28;20053;-72
2021/01/05 10:13:00;;;;;;;2.92;1.80;;;5.50;76.40;;;;;;5036862;28;20051;-72
2021/01/05 10:15:25;;;;;;;2.75;1.67;;;5.40;75.70;;;;;;5037048;28;20147;-72
2021/01/05 10:17:51;;;;;;;3.72;1.60;;;5.30;76.30;;;;;;5036509;28;20025;-71
2021/01/05 10:20:20;;;;;;;3.05;1.80;;;5.20;77.00;;;;;;5036689;28;20018;-72
2021/01/05 10:22:47;;;;;;;3.72;1.85;;;5.10;76.70;;;;;;5036760;28;20025;-72
2021/01/05 10:25:13;;;;;;;2.97;1.95;;;5.10;78.10;;;;;;5036389;28;20430;-72
2021/01/05 10:27:40;;;;;;;2.47;1.85;;;5.00;78.50;;;;;;5036498;28;20447;-71
2021/01/05 10:30:08;;;;;;;2.22;1.55;;;5.10;77.70;;;;;;5036627;28;20029;-71
2021/01/05 10:32:34;;;;;;;4.25;2.00;;;5.10;78.80;;;;;;5036623;28;20490;-72
2021/01/05 10:35:00;;;;;;;3.15;2.10;;;5.30;78.30;;;;;;5036632;28;20042;-71
2021/01/05 10:37:25;;;;;;;3.03;2.22;;;5.60;76.80;;;;;;5036596;28;20418;-72
2021/01/05 10:39:51;;;;;;;2.63;1.80;;;6.00;76.10;;;;;;5036537;28;20108;-72
2021/01/05 10:42:17;;;;;;;2.50;2.00;;;6.20;73.80;;;;;;5036509;28;20030;-72
2021/01/05 10:44:42;;;;;;;2.35;1.73;;;6.40;73.70;;;;;;5036563;28;20030;-72
2021/01/05 10:47:13;;;;;;;2.65;2.00;;;6.50;73.90;;;;;;5036728;28;20109;-71
2021/01/05 10:49:39;;;;;;;5.45;1.77;;;6.50;73.70;;;;;;5036623;28;20022;-72
2021/01/05 10:52:05;;;;;;;3.30;2.05;;;6.60;74.60;;;;;;5035426;28;20037;-72
2021/01/05 10:54:31;;;;;;;2.78;2.00;;;6.70;74.60;;;;;;5036309;28;20333;-72
2021/01/05 10:57:03;;;;;;;2.47;1.80;;;6.50;73.60;;;;;;5036416;28;20426;-72
2021/01/05 10:59:30;;;;;;;2.65;1.85;;;6.40;75.00;;;;;;5036470;28;20036;-72
2021/01/05 11:01:56;;;;;;;2.85;1.90;;;6.30;75.30;;;;;;5036349;28;20032;-72
2021/01/05 11:04:25;;;;;;;3.17;2.35;;;6.20;75.10;;;;;;5036311;28;20030;-72
2021/01/05 11:06:58;;;;;;;2.20;1.65;;;6.40;74.60;;;;;;5036201;28;20029;-72
2021/01/05 11:09:25;;;;;;;2.05;1.52;;;6.50;75.90;;;;;;5036560;28;20155;-72
2021/01/05 11:11:59;;;;;;;2.55;1.52;;;6.60;74.10;;;;;;5036490;28;20119;-72
2021/01/05 11:14:25;;;;;;;2.25;1.77;;;6.60;74.90;;;;;;5036346;28;20025;-72
2021/01/05 11:16:51;;;;;;;2.42;1.80;;;6.70;74.30;;;;;;5036278;28;20036;-72
2021/01/05 11:19:17;;;;;;;2.92;1.60;;;6.70;73.50;;;;;;5035158;28;20030;-72
2021/01/05 11:22:05;;;;;;;3.10;2.00;;;6.50;74.70;;;;;;5036340;28;20033;-72
2021/01/05 11:24:34;;;;;;;2.67;1.80;;;6.40;74.50;;;;;;5036177;28;20041;-72
2021/01/05 11:27:00;;;;;;;3.53;1.90;;;6.20;75.80;;;;;;5036114;28;20038;-72
2021/01/05 11:29:26;;;;;;;2.92;1.60;;;6.20;77.10;;;;;;5037668;28;20027;-72
2021/01/05 11:31:58;;;;;;;2.30;1.30;;;6.10;75.00;;;;;;5040057;28;20033;-72
2021/01/05 11:34:24;;;;;;;3.00;1.20;;;6.10;75.20;;;;;;5039731;28;20104;-72
2021/01/05 11:36:50;;;;;;;2.00;1.10;;;6.00;74.90;;;;;;5039761;28;20316;-72
2021/01/05 11:39:16;;;;;;;2.53;1.30;;;6.00;75.50;;;;;;5039953;28;20359;-72
2021/01/05 11:41:45;;;;;;;1.85;1.25;;;6.10;75.70;;;;;;5038646;28;20021;-72
2021/01/05 11:44:12;;;;;;;2.25;1.35;;;6.00;73.80;;;;;;5039836;28;20028;-72
2021/01/05 11:46:38;;;;;;;2.15;1.40;;;5.90;74.10;;;;;;5039024;28;20033;-72
2021/01/05 11:49:04;;;;;;;3.40;2.03;;;5.90;75.40;;;;;;5039501;28;20083;-72
2021/01/05 11:51:35;;;;;;;2.28;1.52;;;5.90;76.90;;;;;;5039447;28;20070;-72
2021/01/05 11:54:02;;;;;;;2.80;1.38;;;6.00;77.00;;;;;;5039533;28;20473;-72
2021/01/05 11:56:30;;;;;;;10.25;5.65;;;5.90;78.40;;;;;;5039846;28;20021;-72
2021/01/05 11:58:56;;;;;;;3.55;2.00;;;5.90;77.40;;;;;;5039303;28;20060;-72
2021/01/05 12:01:23;;;;;;;2.30;1.67;;;5.80;78.60;;;;;;5039304;28;20057;-72
2021/01/05 12:03:49;;;;;;;2.75;1.30;;;5.80;77.50;;;;;;5038184;28;20036;-72
2021/01/05 12:06:21;;;;;;;2.83;1.60;;;5.70;76.00;;;;;;5039198;28;20026;-72
2021/01/05 12:08:47;;;;;;;2.10;1.25;;;5.70;77.70;;;;;;5039409;28;20044;-71
2021/01/05 12:11:26;;;;;;;2.63;1.45;;;5.70;76.90;;;;;;5039113;28;20064;-72
2021/01/05 12:13:52;;;;;;;1.42;0.98;;;5.60;76.30;;;;;;5039298;28;20025;-72
2021/01/05 12:16:33;;;;;;;1.80;1.30;;;5.60;76.80;;;;;;5038984;28;20578;-72
2021/01/05 12:19:01;;;;;;;2.25;1.50;;;5.50;75.60;;;;;;5038935;28;20061;-72
2021/01/05 12:21:31;;;;;;;2.35;1.27;;;5.40;76.20;;;;;;5038869;28;20337;-72
2021/01/05 12:23:56;;;;;;;2.83;1.75;;;5.40;76.90;;;;;;5038840;28;20037;-72
2021/01/05 12:26:29;;;;;;;1.83;1.00;;;5.40;77.30;;;;;;5038499;28;20402;-72
2021/01/05 12:28:55;;;;;;;1.30;0.80;;;5.40;75.40;;;;;;5039197;28;20318;-72
2021/01/05 12:31:22;;;;;;;1.55;0.90;;;5.40;74.40;;;;;;5038723;28;20343;-72
2021/01/05 12:33:48;;;;;;;1.88;1.00;;;5.40;75.40;;;;;;5038791;28;20025;-72
2021/01/05 12:36:33;;;;;;;1.50;1.13;;;5.40;74.80;;;;;;5038597;28;20028;-72
2021/01/05 12:38:59;;;;;;;1.70;1.20;;;5.30;76.30;;;;;;5038764;28;20099;-72
2021/01/05 12:41:31;;;;;;;2.10;1.48;;;5.30;76.90;;;;;;5038331;28;20029;-71
2021/01/05 12:43:57;;;;;;;2.50;1.40;;;5.30;77.30;;;;;;5037333;28;20052;-72
2021/01/05 12:46:28;;;;;;;1.80;1.30;;;5.30;78.30;;;;;;5037497;28;20386;-72
2021/01/05 12:48:54;;;;;;;3.28;1.65;;;5.20;77.20;;;;;;5038359;28;20079;-72
2021/01/05 12:51:32;;;;;;;2.30;1.45;;;5.10;77.10;;;;;;5038363;28;20013;-72
2021/01/05 12:53:58;;;;;;;2.08;1.38;;;5.10;77.10;;;;;;5038436;28;20028;-72
2021/01/05 12:56:24;;;;;;;2.90;1.50;;;5.00;78.30;;;;;;5038650;28;20037;-72
2021/01/05 12:58:50;;;;;;;2.08;1.45;;;5.00;77.60;;;;;;5038445;28;20037;-71
2021/01/05 13:01:17;;;;;;;4.75;1.90;;;5.00;77.70;;;;;;5038219;28;20071;-71
2021/01/05 13:03:44;;;;;;;2.50;1.90;;;4.90;77.70;;;;;;5038341;28;20083;-71
2021/01/05 13:06:10;;;;;;;3.03;1.98;;;4.90;78.50;;;;;;5036866;28;20030;-71
2021/01/05 13:08:36;;;;;;;3.13;1.85;;;4.80;78.40;;;;;;5037970;28;20025;-72
2021/01/05 13:11:11;;;;;;;3.40;2.03;;;4.70;79.60;;;;;;5037968;28;20025;-72
2021/01/05 13:13:40;;;;;;;3.28;2.45;;;4.70;80.60;;;;;;5037922;28;20025;-72